createdAt,value
2017-12-19T00:01:01.947Z,0.41
2017-12-19T00:03:29.471Z,0.43
2017-12-19T00:05:56.998Z,0.45
2017-12-19T00:08:24.572Z,0.44
2017-12-19T00:10:52.082Z,0.48
2017-12-19T00:13:19.605Z,0.46
2017-12-19T00:15:47.137Z,0.53
2017-12-19T00:18:14.660Z,0.49
2017-12-19T00:20:42.188Z,0.54
2017-12-19T00:23:09.706Z,0.53
2017-12-19T00:25:37.237Z,0.52
2017-12-19T00:28:04.797Z,0.58
2017-12-19T00:30:32.321Z,0.57
2017-12-19T00:32:59.843Z,0.59
2017-12-19T00:35:27.377Z,0.59
2017-12-19T00:37:54.901Z,0.62
2017-12-19T00:40:22.453Z,0.67
2017-12-19T00:42:49.979Z,0.70
2017-12-19T00:45:17.509Z,0.61
2017-12-19T00:47:45.031Z,0.65
2017-12-19T00:50:12.557Z,0.72
2017-12-19T00:52:40.087Z,0.78
2017-12-19T00:55:07.849Z,0.77
2017-12-19T00:57:35.371Z,0.81
2017-12-19T01:00:02.900Z,0.84
2017-12-19T01:02:30.432Z,0.87
2017-12-19T01:04:57.950Z,0.88
2017-12-19T01:07:25.486Z,0.81
2017-12-19T01:09:53.030Z,0.83
2017-12-19T01:12:20.556Z,0.88
2017-12-19T01:14:48.107Z,0.87
2017-12-19T01:17:15.631Z,0.91
2017-12-19T01:19:43.154Z,0.88
2017-12-19T01:22:10.683Z,0.94
2017-12-19T01:24:38.211Z,0.96
2017-12-19T01:27:06.025Z,0.95
2017-12-19T01:29:34.315Z,0.96
2017-12-19T01:32:01.838Z,0.99
2017-12-19T01:34:29.358Z,0.95
2017-12-19T01:36:56.886Z,0.98
2017-12-19T01:39:24.410Z,0.96
2017-12-19T01:41:52.758Z,1.03
2017-12-19T01:44:20.284Z,0.98
2017-12-19T01:46:47.815Z,0.99
2017-12-19T01:49:15.346Z,1.02
2017-12-19T01:51:42.874Z,1.04
2017-12-19T01:54:10.397Z,1.00
2017-12-19T01:56:37.923Z,1.03
2017-12-19T01:59:05.454Z,1.06
2017-12-19T02:01:32.970Z,1.05
2017-12-19T02:04:00.493Z,1.02
2017-12-19T02:06:28.019Z,1.13
2017-12-19T02:08:55.549Z,1.04
2017-12-19T02:11:23.080Z,1.06
2017-12-19T02:13:50.604Z,1.03
2017-12-19T02:16:18.132Z,1.07
2017-12-19T02:18:45.654Z,1.03
2017-12-19T02:21:13.181Z,1.04
2017-12-19T02:23:40.699Z,1.07
2017-12-19T02:26:08.225Z,1.10
2017-12-19T02:28:35.732Z,1.12
2017-12-19T02:31:03.244Z,1.11
2017-12-19T02:33:30.784Z,1.18
2017-12-19T02:35:58.307Z,1.17
2017-12-19T02:38:25.826Z,1.19
2017-12-19T02:40:53.357Z,1.15
2017-12-19T02:43:21.738Z,1.23
2017-12-19T02:45:53.243Z,1.21
2017-12-19T02:48:20.779Z,1.23
2017-12-19T02:50:48.302Z,1.23
2017-12-19T02:53:15.835Z,1.15
2017-12-19T02:55:43.423Z,1.25
2017-12-19T02:58:10.910Z,1.30
2017-12-19T03:00:38.457Z,1.31
2017-12-19T03:03:05.998Z,1.35
2017-12-19T03:05:33.531Z,1.33
2017-12-19T03:08:01.050Z,1.34
2017-12-19T03:10:28.574Z,1.37
2017-12-19T03:12:56.109Z,1.38
2017-12-19T03:15:23.644Z,1.31
2017-12-19T03:17:51.191Z,1.34
2017-12-19T03:20:18.713Z,1.34
2017-12-19T03:22:46.247Z,1.33
2017-12-19T03:25:13.766Z,1.43
2017-12-19T03:27:41.290Z,1.38
2017-12-19T03:30:08.820Z,1.37
2017-12-19T03:32:37.950Z,1.39
2017-12-19T03:35:05.474Z,1.44
2017-12-19T03:37:33.037Z,1.39
2017-12-19T03:40:00.568Z,1.39
2017-12-19T03:42:28.118Z,1.39
2017-12-19T03:44:55.641Z,1.34
2017-12-19T03:47:23.172Z,1.37
2017-12-19T03:49:50.699Z,1.37
2017-12-19T03:52:18.226Z,1.37
2017-12-19T03:54:45.780Z,1.39
2017-12-19T03:57:13.321Z,1.40
2017-12-19T03:59:40.871Z,1.39
2017-12-19T04:02:08.395Z,1.41
2017-12-19T04:04:35.935Z,1.43
2017-12-19T04:07:03.479Z,1.45
2017-12-19T04:09:31.008Z,1.48
2017-12-19T04:11:58.530Z,1.39
2017-12-19T04:14:26.091Z,1.45
2017-12-19T04:16:53.617Z,1.47
2017-12-19T04:19:21.145Z,1.51
2017-12-19T04:21:48.671Z,1.52
2017-12-19T04:24:16.199Z,1.56
2017-12-19T04:26:43.723Z,1.49
2017-12-19T04:29:11.252Z,1.51
2017-12-19T04:31:38.794Z,1.50
2017-12-19T04:34:06.330Z,1.49
2017-12-19T04:36:33.857Z,1.43
2017-12-19T04:39:01.388Z,1.53
2017-12-19T04:41:28.939Z,1.49
2017-12-19T04:43:56.470Z,1.57
2017-12-19T04:46:23.999Z,1.57
2017-12-19T04:48:51.522Z,1.55
2017-12-19T04:51:19.059Z,1.58
2017-12-19T04:53:46.597Z,1.58
2017-12-19T04:56:14.163Z,1.58
2017-12-19T04:58:41.691Z,1.57
2017-12-19T05:01:09.220Z,1.66
2017-12-19T05:03:36.746Z,1.71
2017-12-19T05:06:04.266Z,1.69
2017-12-19T05:08:31.790Z,1.67
2017-12-19T05:10:59.320Z,1.69
2017-12-19T05:13:26.845Z,1.71
2017-12-19T05:15:54.366Z,1.71
2017-12-19T05:18:21.891Z,1.75
2017-12-19T05:20:49.423Z,1.77
2017-12-19T05:23:16.957Z,1.79
2017-12-19T05:25:44.503Z,1.80
2017-12-19T05:28:12.050Z,1.76
2017-12-19T05:30:39.590Z,1.83
2017-12-19T05:33:07.128Z,1.79
2017-12-19T05:35:34.653Z,1.82
2017-12-19T05:38:02.179Z,1.78
2017-12-19T05:40:29.721Z,1.80
2017-12-19T05:42:57.250Z,1.75
2017-12-19T05:45:24.780Z,1.80
2017-12-19T05:47:52.325Z,1.75
2017-12-19T05:50:19.859Z,1.78
2017-12-19T05:52:47.387Z,1.79
2017-12-19T05:55:14.908Z,1.77
2017-12-19T05:57:42.436Z,1.79
2017-12-19T06:00:09.968Z,1.80
2017-12-19T06:02:37.489Z,1.78
2017-12-19T06:05:05.012Z,1.82
2017-12-19T06:07:32.542Z,1.87
2017-12-19T06:10:00.089Z,1.88
2017-12-19T06:12:27.618Z,1.87
2017-12-19T06:14:55.148Z,1.91
2017-12-19T06:17:22.669Z,1.89
2017-12-19T06:19:50.192Z,1.90
2017-12-19T06:22:17.725Z,1.90
2017-12-19T06:24:45.254Z,1.93
2017-12-19T06:27:12.784Z,1.92
2017-12-19T06:29:40.302Z,1.91
2017-12-19T06:32:07.823Z,1.81
2017-12-19T06:34:35.349Z,1.94
2017-12-19T06:37:02.879Z,1.95
2017-12-19T06:39:30.401Z,1.91
2017-12-19T06:41:57.921Z,1.97
2017-12-19T06:44:25.460Z,1.95
2017-12-19T06:46:52.976Z,1.98
2017-12-19T06:49:20.495Z,1.99
2017-12-19T06:51:48.038Z,2.07
2017-12-19T06:54:15.567Z,2.10
2017-12-19T06:56:43.099Z,2.15
2017-12-19T06:59:10.672Z,2.18
2017-12-19T07:01:38.208Z,2.26
2017-12-19T07:04:05.732Z,2.23
2017-12-19T07:06:33.250Z,2.26
2017-12-19T07:09:00.793Z,2.29
2017-12-19T07:11:28.323Z,2.28
2017-12-19T07:13:55.855Z,2.28
2017-12-19T07:16:23.382Z,2.22
2017-12-19T07:18:50.906Z,2.25
2017-12-19T07:21:18.425Z,2.29
2017-12-19T07:23:45.952Z,2.31
2017-12-19T07:26:13.486Z,2.28
2017-12-19T07:28:40.997Z,2.28
2017-12-19T07:31:08.527Z,2.34
2017-12-19T07:33:36.044Z,2.33
2017-12-19T07:36:03.576Z,2.35
2017-12-19T07:38:31.103Z,2.37
2017-12-19T07:40:58.642Z,2.35
2017-12-19T07:43:26.177Z,2.32
2017-12-19T07:45:53.706Z,2.34
2017-12-19T07:48:21.229Z,2.36
2017-12-19T07:50:48.752Z,2.39
2017-12-19T07:53:16.274Z,2.42
2017-12-19T07:55:43.797Z,2.41
2017-12-19T07:58:11.330Z,2.37
2017-12-19T08:00:38.845Z,2.40
2017-12-19T08:03:06.385Z,2.51
2017-12-19T08:05:33.907Z,2.42
2017-12-19T08:08:01.436Z,2.39
2017-12-19T08:10:28.967Z,2.25
2017-12-19T08:12:56.492Z,2.37
2017-12-19T08:15:24.017Z,2.34
2017-12-19T08:17:51.543Z,2.39
2017-12-19T08:20:19.086Z,2.43
2017-12-19T08:22:46.623Z,2.40
2017-12-19T08:25:14.151Z,2.31
2017-12-19T08:27:41.694Z,2.37
2017-12-19T08:30:09.226Z,2.43
2017-12-19T08:32:36.755Z,2.43
2017-12-19T08:35:04.273Z,2.45
2017-12-19T08:37:31.810Z,2.48
2017-12-19T08:39:59.337Z,2.50
2017-12-19T08:42:26.866Z,2.57
2017-12-19T08:44:54.409Z,2.61
2017-12-19T08:47:21.939Z,2.59
2017-12-19T08:49:49.466Z,2.64
2017-12-19T08:52:16.991Z,2.66
2017-12-19T08:54:44.515Z,2.72
2017-12-19T08:57:12.044Z,2.74
2017-12-19T08:59:39.575Z,2.71
2017-12-19T09:02:07.099Z,2.78
2017-12-19T09:04:34.626Z,2.90
2017-12-19T09:07:02.150Z,2.83
2017-12-19T09:09:29.671Z,2.93
2017-12-19T09:11:57.198Z,2.80
2017-12-19T09:14:24.735Z,2.88
2017-12-19T09:16:52.253Z,2.79
2017-12-19T09:19:19.775Z,3.03
2017-12-19T09:21:47.316Z,2.89
2017-12-19T09:24:14.875Z,2.87
2017-12-19T09:26:42.416Z,2.87
2017-12-19T09:29:09.974Z,2.86
2017-12-19T09:31:37.507Z,2.88
2017-12-19T09:34:05.045Z,2.95
2017-12-19T09:36:32.562Z,3.08
2017-12-19T09:39:00.090Z,3.02
2017-12-19T09:41:27.614Z,2.89
2017-12-19T09:43:55.152Z,3.07
2017-12-19T09:46:22.687Z,3.22
2017-12-19T09:48:50.211Z,3.24
2017-12-19T09:51:17.753Z,3.18
2017-12-19T09:53:45.278Z,3.23
2017-12-19T09:56:12.803Z,3.36
2017-12-19T09:58:40.327Z,3.28
2017-12-19T10:01:07.854Z,3.34
2017-12-19T10:03:35.382Z,3.43
2017-12-19T10:06:02.905Z,3.43
2017-12-19T10:08:30.426Z,3.37
2017-12-19T10:10:57.952Z,3.38
2017-12-19T10:13:25.472Z,3.46
2017-12-19T10:15:53.006Z,3.48
2017-12-19T10:18:20.539Z,3.43
2017-12-19T10:20:48.056Z,3.56
2017-12-19T10:23:15.582Z,3.51
2017-12-19T10:25:43.237Z,3.48
2017-12-19T10:28:10.774Z,3.40
2017-12-19T10:30:38.294Z,3.46
2017-12-19T10:33:05.876Z,3.32
2017-12-19T10:35:33.412Z,3.41
2017-12-19T10:38:00.941Z,3.42
2017-12-19T10:40:28.468Z,3.47
2017-12-19T10:42:56.001Z,3.57
2017-12-19T10:45:23.567Z,3.56
2017-12-19T10:47:51.082Z,3.54
2017-12-19T10:50:18.610Z,3.60
2017-12-19T10:52:46.136Z,3.75
2017-12-19T10:55:13.667Z,3.77
2017-12-19T10:57:41.187Z,3.78
2017-12-19T11:00:08.711Z,3.81
2017-12-19T11:02:36.230Z,3.83
2017-12-19T11:05:03.780Z,3.80
2017-12-19T11:07:31.308Z,3.76
2017-12-19T11:09:58.849Z,3.93
2017-12-19T11:12:26.369Z,4.01
2017-12-19T11:14:53.897Z,4.02
2017-12-19T11:17:21.418Z,3.88
2017-12-19T11:19:48.946Z,3.93
2017-12-19T11:22:16.480Z,4.03
2017-12-19T11:24:44.018Z,3.89
2017-12-19T11:27:11.551Z,3.99
2017-12-19T11:29:39.091Z,3.95
2017-12-19T11:32:06.909Z,4.10
2017-12-19T11:34:34.492Z,4.00
2017-12-19T11:37:02.059Z,3.93
2017-12-19T11:39:29.580Z,4.10
2017-12-19T11:41:57.104Z,4.07
2017-12-19T11:44:24.623Z,4.15
2017-12-19T11:46:52.153Z,4.14
2017-12-19T11:49:19.674Z,4.11
2017-12-19T11:51:47.231Z,4.08
2017-12-19T11:54:14.749Z,4.12
2017-12-19T11:56:42.270Z,4.11
2017-12-19T11:59:09.801Z,4.15
2017-12-19T12:01:37.322Z,4.09
2017-12-19T12:04:04.882Z,4.01
2017-12-19T12:06:32.413Z,4.03
2017-12-19T12:08:59.944Z,4.08
2017-12-19T12:11:27.469Z,4.17
2017-12-19T12:13:55.031Z,4.12
2017-12-19T12:16:22.543Z,4.03
2017-12-19T12:18:50.559Z,3.99
2017-12-19T12:21:18.087Z,4.00
2017-12-19T12:23:45.605Z,4.01
2017-12-19T12:26:13.131Z,3.87
2017-12-19T12:28:40.678Z,4.08
2017-12-19T12:31:08.207Z,3.92
2017-12-19T12:33:35.737Z,3.97
2017-12-19T12:36:03.261Z,4.05
2017-12-19T12:38:30.790Z,3.96
2017-12-19T12:40:58.314Z,3.94
2017-12-19T12:43:25.830Z,3.98
2017-12-19T12:45:53.364Z,3.86
2017-12-19T12:48:20.899Z,3.80
2017-12-19T12:50:48.422Z,3.93
2017-12-19T12:53:15.949Z,3.88
2017-12-19T12:55:43.485Z,3.86
2017-12-19T12:58:11.013Z,3.79
2017-12-19T13:00:38.549Z,3.87
2017-12-19T13:03:06.075Z,3.92
2017-12-19T13:05:33.607Z,3.84
2017-12-19T13:08:01.125Z,3.86
2017-12-19T13:10:28.652Z,3.88
2017-12-19T13:12:56.182Z,3.85
2017-12-19T13:15:23.702Z,3.87
2017-12-19T13:17:51.218Z,3.91
2017-12-19T13:20:18.744Z,3.91
2017-12-19T13:22:46.307Z,3.87
2017-12-19T13:25:13.834Z,3.89
2017-12-19T13:27:41.430Z,4.00
2017-12-19T13:30:08.961Z,3.90
2017-12-19T13:32:36.484Z,3.97
2017-12-19T13:35:04.005Z,3.91
2017-12-19T13:37:31.529Z,3.86
2017-12-19T13:39:59.061Z,3.90
2017-12-19T13:42:26.580Z,3.97
2017-12-19T13:44:54.106Z,3.90
2017-12-19T13:47:21.657Z,3.94
2017-12-19T13:49:49.204Z,3.96
2017-12-19T13:52:16.821Z,3.91
2017-12-19T13:54:44.395Z,3.93
2017-12-19T13:57:11.922Z,3.92
2017-12-19T13:59:39.443Z,3.93
2017-12-19T14:02:06.981Z,3.96
2017-12-19T14:04:34.518Z,3.93
2017-12-19T14:07:02.148Z,3.98
2017-12-19T14:09:29.682Z,4.06
2017-12-19T14:11:57.286Z,4.03
2017-12-19T14:14:24.833Z,4.05
2017-12-19T14:16:52.356Z,4.05
2017-12-19T14:19:19.916Z,4.07
2017-12-19T14:21:47.446Z,4.04
2017-12-19T14:24:15.025Z,4.04
2017-12-19T14:26:42.549Z,4.07
2017-12-19T14:29:10.239Z,4.13
2017-12-19T14:31:37.793Z,4.16
2017-12-19T14:34:05.350Z,4.16
2017-12-19T14:36:32.881Z,4.17
2017-12-19T14:39:00.422Z,4.15
2017-12-19T14:41:27.970Z,4.15
2017-12-19T14:43:55.527Z,4.20
2017-12-19T14:46:23.072Z,4.17
2017-12-19T14:48:50.609Z,4.20
2017-12-19T14:51:18.161Z,4.20
2017-12-19T14:53:45.728Z,4.23
2017-12-19T14:56:13.250Z,4.23
2017-12-19T14:58:40.770Z,4.28
2017-12-19T15:01:08.298Z,4.32
2017-12-19T15:03:35.830Z,4.31
2017-12-19T15:06:03.386Z,4.26
2017-12-19T15:08:30.915Z,4.23
2017-12-19T15:10:58.473Z,4.26
2017-12-19T15:13:26.005Z,4.20
2017-12-19T15:15:53.530Z,4.28
2017-12-19T15:18:21.046Z,4.34
2017-12-19T15:20:48.584Z,4.36
2017-12-19T15:23:16.098Z,4.30
2017-12-19T15:25:43.618Z,4.24
2017-12-19T15:28:11.158Z,4.26
2017-12-19T15:30:38.683Z,4.28
2017-12-19T15:33:06.203Z,4.33
2017-12-19T15:35:33.734Z,4.29
2017-12-19T15:38:01.263Z,4.30
2017-12-19T15:40:28.785Z,4.31
2017-12-19T15:42:56.310Z,4.36
2017-12-19T15:45:23.836Z,4.34
2017-12-19T15:47:51.381Z,4.35
2017-12-19T15:50:18.970Z,4.39
2017-12-19T15:52:46.502Z,4.40
2017-12-19T15:55:14.024Z,4.36
2017-12-19T15:57:41.569Z,4.37
2017-12-19T16:00:09.085Z,4.39
2017-12-19T16:02:36.612Z,4.42
2017-12-19T16:05:04.141Z,4.41
2017-12-19T16:07:31.655Z,4.44
2017-12-19T17:31:56.251Z,4.37
2017-12-19T17:34:23.777Z,4.36
2017-12-19T17:36:51.306Z,4.42
2017-12-19T17:39:18.835Z,4.42
2017-12-19T17:41:46.379Z,4.42
2017-12-19T17:44:13.902Z,4.50
2017-12-19T17:46:41.434Z,4.45
2017-12-19T17:49:09.398Z,4.45
2017-12-19T17:51:36.934Z,4.47
2017-12-19T17:54:04.491Z,4.45
2017-12-19T17:56:32.020Z,4.47
2017-12-19T17:58:59.538Z,4.51
2017-12-19T18:01:27.049Z,4.46
2017-12-19T18:03:54.590Z,4.50
2017-12-19T18:06:22.128Z,4.49
2017-12-19T18:08:49.669Z,4.50
2017-12-19T18:11:17.201Z,4.54
2017-12-19T18:13:44.727Z,4.52
2017-12-19T18:16:12.263Z,4.49
2017-12-19T18:18:39.811Z,4.51
2017-12-19T18:21:07.339Z,4.44
2017-12-19T18:23:34.862Z,4.51
2017-12-19T18:26:02.401Z,4.49
2017-12-19T18:28:29.944Z,4.48
2017-12-19T18:30:57.475Z,4.47
2017-12-19T18:33:25.003Z,4.49
2017-12-19T18:35:52.539Z,4.51
2017-12-19T18:38:20.069Z,4.49
2017-12-19T18:40:47.600Z,4.49
2017-12-19T18:43:15.126Z,4.44
2017-12-19T18:45:42.680Z,4.43
2017-12-19T18:48:10.223Z,4.42
2017-12-19T18:50:37.768Z,4.40
2017-12-19T18:53:05.290Z,4.43
2017-12-19T18:55:32.879Z,4.44
2017-12-19T18:58:00.411Z,4.44
2017-12-19T19:00:27.974Z,4.46
2017-12-19T19:02:55.502Z,4.47
2017-12-19T19:05:23.139Z,4.48
2017-12-19T19:07:50.684Z,4.45
2017-12-19T19:10:18.210Z,4.47
2017-12-19T19:12:45.737Z,4.50
2017-12-19T19:15:13.359Z,4.49
2017-12-19T19:17:40.891Z,4.50
2017-12-19T19:20:09.311Z,4.47
2017-12-19T19:22:36.861Z,4.41
2017-12-19T19:25:04.390Z,4.44
2017-12-19T19:27:31.920Z,4.48
2017-12-19T19:29:59.447Z,4.43
2017-12-19T19:32:27.252Z,4.44
2017-12-19T19:34:54.824Z,4.36
2017-12-19T19:37:22.434Z,4.33
2017-12-19T19:39:49.966Z,4.34
2017-12-19T19:42:17.493Z,4.35
2017-12-19T19:44:45.041Z,4.35
2017-12-19T19:47:12.590Z,4.33
2017-12-19T19:49:40.129Z,4.30
2017-12-19T19:52:07.662Z,4.28
2017-12-19T19:54:35.196Z,4.27
2017-12-19T19:57:02.725Z,4.25
2017-12-19T19:59:30.245Z,4.29
2017-12-19T20:01:57.757Z,4.35
2017-12-19T20:04:25.302Z,4.33
2017-12-19T20:06:52.828Z,4.38
2017-12-19T20:09:20.351Z,4.32
2017-12-19T20:11:47.885Z,4.35
2017-12-19T20:14:15.498Z,4.32
2017-12-19T20:16:43.019Z,4.27
2017-12-19T20:19:10.577Z,4.30
2017-12-19T20:21:38.099Z,4.33
2017-12-19T20:24:05.632Z,4.32
2017-12-19T20:26:33.174Z,4.39
2017-12-19T20:29:00.712Z,4.38
2017-12-19T20:31:28.252Z,4.40
2017-12-19T20:33:55.787Z,4.42
2017-12-19T20:36:23.310Z,4.38
2017-12-19T20:38:50.828Z,4.39
2017-12-19T20:41:18.360Z,4.31
2017-12-19T20:43:45.915Z,4.37
2017-12-19T20:46:13.449Z,4.36
2017-12-19T20:48:40.978Z,4.32
2017-12-19T20:51:08.515Z,4.37
2017-12-19T20:53:36.043Z,4.37
2017-12-19T20:56:03.575Z,4.32
2017-12-19T20:58:31.100Z,4.37
2017-12-19T21:00:58.629Z,4.38
2017-12-19T21:03:26.150Z,4.37
2017-12-19T21:05:53.673Z,4.39
2017-12-19T21:08:21.194Z,4.36
2017-12-19T21:10:48.722Z,4.36
2017-12-19T21:13:16.247Z,4.33
2017-12-19T21:15:43.769Z,4.32
2017-12-19T21:18:11.299Z,4.39
2017-12-19T21:20:38.830Z,4.40
2017-12-19T21:23:06.370Z,4.42
2017-12-19T21:25:33.897Z,4.42
2017-12-19T21:28:01.504Z,4.32
2017-12-19T21:30:29.026Z,4.32
2017-12-19T21:32:56.555Z,4.37
2017-12-19T21:35:24.079Z,4.38
2017-12-19T21:37:51.612Z,4.38
2017-12-19T21:40:19.149Z,4.42
2017-12-19T21:42:46.692Z,4.42
2017-12-19T21:45:14.218Z,4.37
2017-12-19T21:47:41.773Z,4.40
2017-12-19T21:50:09.306Z,4.39
2017-12-19T21:52:36.829Z,4.37
2017-12-19T21:55:04.353Z,4.39
2017-12-19T21:57:31.957Z,4.39
2017-12-19T21:59:59.509Z,4.40
2017-12-19T22:02:27.122Z,4.37
2017-12-19T22:04:54.655Z,4.37
2017-12-19T22:07:22.223Z,4.37
2017-12-19T22:09:49.815Z,4.37
2017-12-19T22:12:17.342Z,4.40
2017-12-19T22:14:44.868Z,4.44
2017-12-19T22:17:12.397Z,4.41
2017-12-19T22:19:39.988Z,4.43
2017-12-19T22:22:07.514Z,4.42
2017-12-19T22:24:35.153Z,4.31
2017-12-19T22:27:02.695Z,4.36
2017-12-19T22:29:30.302Z,4.40
2017-12-19T22:31:57.821Z,4.39
2017-12-19T22:34:25.390Z,4.40
2017-12-19T22:36:52.929Z,4.42
2017-12-19T22:39:20.470Z,4.39
2017-12-19T22:41:47.994Z,4.31
2017-12-19T22:44:15.560Z,4.37
2017-12-19T22:46:43.154Z,4.37
2017-12-19T22:49:10.702Z,4.39
2017-12-19T22:51:38.293Z,4.34
2017-12-19T22:54:05.869Z,4.39
2017-12-19T22:56:33.460Z,4.29
2017-12-19T22:59:00.995Z,4.35
2017-12-19T23:01:28.527Z,4.30
2017-12-19T23:03:56.054Z,4.29
2017-12-19T23:06:23.599Z,4.35
2017-12-19T23:08:51.153Z,4.34
2017-12-19T23:11:18.669Z,4.31
2017-12-19T23:13:46.299Z,4.41
2017-12-19T23:16:13.830Z,4.38
2017-12-19T23:18:41.360Z,4.36
2017-12-19T23:21:08.877Z,4.42
2017-12-19T23:23:36.426Z,4.37
2017-12-19T23:26:03.984Z,4.38
2017-12-19T23:28:31.647Z,4.35
2017-12-19T23:30:59.182Z,4.42
2017-12-19T23:33:26.753Z,4.45
2017-12-19T23:35:54.475Z,4.44
2017-12-19T23:38:22.012Z,4.45
2017-12-19T23:40:49.590Z,4.45
2017-12-19T23:43:17.161Z,4.38
2017-12-19T23:45:44.719Z,4.41
2017-12-19T23:48:12.259Z,4.38
2017-12-19T23:50:39.783Z,4.29
2017-12-19T23:53:07.324Z,4.34
2017-12-19T23:55:34.960Z,4.33
2017-12-19T23:58:02.529Z,4.34
